sensor_id;sensor_type;location;lat;lon;timestamp;P1;durP1;ratioP1;P2;durP2;ratioP2
20462;SDS011;10390;53.566;9.980;2022-08-03T00:02:24;8.95;;;7.60;;
20462;SDS011;10390;53.566;9.980;2022-08-03T00:04:50;7.85;;;6.93;;
20462;SDS011;10390;53.566;9.980;2022-08-03T00:07:16;8.35;;;7.45;;
20462;SDS011;10390;53.566;9.980;2022-08-03T00:09:42;9.20;;;7.63;;
20462;SDS011;10390;53.566;9.980;2022-08-03T00:12:08;8.48;;;7.03;;
20462;SDS011;10390;53.566;9.980;2022-08-03T00:14:34;8.27;;;7.07;;
20462;SDS011;10390;53.566;9.980;2022-08-03T00:17:00;6.53;;;5.80;;
20462;SDS011;10390;53.566;9.980;2022-08-03T00:19:26;6.50;;;5.80;;
20462;SDS011;10390;53.566;9.980;2022-08-03T00:21:52;6.45;;;5.40;;
20462;SDS011;10390;53.566;9.980;2022-08-03T00:24:18;6.07;;;5.13;;
20462;SDS011;10390;53.566;9.980;2022-08-03T00:26:44;6.05;;;5.13;;
20462;SDS011;10390;53.566;9.980;2022-08-03T00:29:10;6.07;;;5.38;;
20462;SDS011;10390;53.566;9.980;2022-08-03T00:31:36;6.35;;;5.53;;
20462;SDS011;10390;53.566;9.980;2022-08-03T00:34:01;6.88;;;5.93;;
20462;SDS011;10390;53.566;9.980;2022-08-03T00:36:27;6.35;;;5.57;;
20462;SDS011;10390;53.566;9.980;2022-08-03T00:38:53;6.35;;;5.28;;
20462;SDS011;10390;53.566;9.980;2022-08-03T00:41:20;5.80;;;5.18;;
20462;SDS011;10390;53.566;9.980;2022-08-03T00:43:46;6.07;;;5.35;;
20462;SDS011;10390;53.566;9.980;2022-08-03T00:46:12;6.70;;;5.65;;
20462;SDS011;10390;53.566;9.980;2022-08-03T00:48:38;7.05;;;5.55;;
20462;SDS011;10390;53.566;9.980;2022-08-03T00:51:04;5.82;;;5.15;;
20462;SDS011;10390;53.566;9.980;2022-08-03T00:53:30;6.40;;;5.28;;
20462;SDS011;10390;53.566;9.980;2022-08-03T00:55:58;6.10;;;5.45;;
20462;SDS011;10390;53.566;9.980;2022-08-03T00:58:24;6.18;;;5.30;;
20462;SDS011;10390;53.566;9.980;2022-08-03T01:00:50;5.65;;;5.05;;
20462;SDS011;10390;53.566;9.980;2022-08-03T01:03:16;5.70;;;5.00;;
20462;SDS011;10390;53.566;9.980;2022-08-03T01:14:31;5.65;;;5.05;;
20462;SDS011;10390;53.566;9.980;2022-08-03T01:17:11;5.38;;;4.85;;
20462;SDS011;10390;53.566;9.980;2022-08-03T01:20:05;5.80;;;5.20;;
20462;SDS011;10390;53.566;9.980;2022-08-03T01:28:18;6.55;;;5.38;;
20462;SDS011;10390;53.566;9.980;2022-08-03T01:31:17;5.30;;;4.28;;
20462;SDS011;10390;53.566;9.980;2022-08-03T01:33:53;5.13;;;4.63;;
20462;SDS011;10390;53.566;9.980;2022-08-03T01:36:28;5.70;;;4.60;;
20462;SDS011;10390;53.566;9.980;2022-08-03T01:39:00;5.35;;;4.47;;
20462;SDS011;10390;53.566;9.980;2022-08-03T01:41:32;6.15;;;5.30;;
20462;SDS011;10390;53.566;9.980;2022-08-03T01:44:12;5.88;;;5.18;;
20462;SDS011;10390;53.566;9.980;2022-08-03T01:46:38;5.82;;;4.82;;
20462;SDS011;10390;53.566;9.980;2022-08-03T01:49:06;5.85;;;5.25;;
20462;SDS011;10390;53.566;9.980;2022-08-03T01:51:36;5.47;;;4.40;;
20462;SDS011;10390;53.566;9.980;2022-08-03T01:54:06;5.28;;;4.38;;
20462;SDS011;10390;53.566;9.980;2022-08-03T01:56:35;5.20;;;4.30;;
20462;SDS011;10390;53.566;9.980;2022-08-03T01:59:04;5.00;;;4.50;;
20462;SDS011;10390;53.566;9.980;2022-08-03T02:01:32;5.53;;;4.53;;
20462;SDS011;10390;53.566;9.980;2022-08-03T02:04:00;5.43;;;4.55;;
20462;SDS011;10390;53.566;9.980;2022-08-03T02:06:29;5.13;;;4.40;;
20462;SDS011;10390;53.566;9.980;2022-08-03T02:08:58;4.85;;;4.00;;
20462;SDS011;10390;53.566;9.980;2022-08-03T02:11:24;4.90;;;4.35;;
20462;SDS011;10390;53.566;9.980;2022-08-03T02:13:52;5.22;;;4.30;;
20462;SDS011;10390;53.566;9.980;2022-08-03T02:16:19;5.15;;;4.25;;
20462;SDS011;10390;53.566;9.980;2022-08-03T02:18:48;5.13;;;4.43;;
20462;SDS011;10390;53.566;9.980;2022-08-03T02:21:16;4.60;;;3.92;;
20462;SDS011;10390;53.566;9.980;2022-08-03T02:23:42;4.80;;;4.03;;
20462;SDS011;10390;53.566;9.980;2022-08-03T02:26:11;5.00;;;4.25;;
20462;SDS011;10390;53.566;9.980;2022-08-03T02:28:42;6.05;;;4.07;;
20462;SDS011;10390;53.566;9.980;2022-08-03T02:31:14;4.70;;;4.03;;
20462;SDS011;10390;53.566;9.980;2022-08-03T02:33:48;4.50;;;3.85;;
20462;SDS011;10390;53.566;9.980;2022-08-03T02:36:21;4.85;;;3.90;;
20462;SDS011;10390;53.566;9.980;2022-08-03T02:38:52;4.30;;;3.80;;
20462;SDS011;10390;53.566;9.980;2022-08-03T02:41:22;4.95;;;4.20;;
20462;SDS011;10390;53.566;9.980;2022-08-03T02:43:53;4.90;;;4.20;;
20462;SDS011;10390;53.566;9.980;2022-08-03T02:46:23;4.47;;;3.78;;
20462;SDS011;10390;53.566;9.980;2022-08-03T02:48:56;4.68;;;4.10;;
20462;SDS011;10390;53.566;9.980;2022-08-03T02:51:25;4.53;;;3.88;;
20462;SDS011;10390;53.566;9.980;2022-08-03T02:53:54;4.32;;;3.83;;
20462;SDS011;10390;53.566;9.980;2022-08-03T02:56:22;4.68;;;4.10;;
20462;SDS011;10390;53.566;9.980;2022-08-03T02:58:49;4.80;;;4.10;;
20462;SDS011;10390;53.566;9.980;2022-08-03T03:01:18;4.78;;;4.10;;
20462;SDS011;10390;53.566;9.980;2022-08-03T03:03:46;5.00;;;4.03;;
20462;SDS011;10390;53.566;9.980;2022-08-03T03:06:16;5.20;;;4.40;;
20462;SDS011;10390;53.566;9.980;2022-08-03T03:08:43;4.85;;;4.15;;
20462;SDS011;10390;53.566;9.980;2022-08-03T03:11:12;4.78;;;3.90;;
20462;SDS011;10390;53.566;9.980;2022-08-03T03:13:41;4.88;;;3.83;;
20462;SDS011;10390;53.566;9.980;2022-08-03T03:16:08;4.68;;;3.70;;
20462;SDS011;10390;53.566;9.980;2022-08-03T03:18:37;4.53;;;3.92;;
20462;SDS011;10390;53.566;9.980;2022-08-03T03:21:04;4.25;;;3.50;;
20462;SDS011;10390;53.566;9.980;2022-08-03T03:23:36;4.50;;;3.70;;
20462;SDS011;10390;53.566;9.980;2022-08-03T03:26:05;4.70;;;3.67;;
20462;SDS011;10390;53.566;9.980;2022-08-03T03:28:31;4.05;;;3.40;;
20462;SDS011;10390;53.566;9.980;2022-08-03T03:31:00;4.50;;;3.70;;
20462;SDS011;10390;53.566;9.980;2022-08-03T03:33:28;4.55;;;3.70;;
20462;SDS011;10390;53.566;9.980;2022-08-03T03:35:54;4.45;;;3.70;;
20462;SDS011;10390;53.566;9.980;2022-08-03T03:38:21;4.15;;;3.58;;
20462;SDS011;10390;53.566;9.980;2022-08-03T03:40:47;4.25;;;3.60;;
20462;SDS011;10390;53.566;9.980;2022-08-03T03:43:13;4.80;;;3.90;;
20462;SDS011;10390;53.566;9.980;2022-08-03T03:45:39;4.18;;;3.60;;
20462;SDS011;10390;53.566;9.980;2022-08-03T03:48:07;4.53;;;3.58;;
20462;SDS011;10390;53.566;9.980;2022-08-03T03:50:34;4.03;;;3.38;;
20462;SDS011;10390;53.566;9.980;2022-08-03T03:53:02;4.10;;;3.35;;
20462;SDS011;10390;53.566;9.980;2022-08-03T03:55:28;4.07;;;3.40;;
20462;SDS011;10390;53.566;9.980;2022-08-03T03:57:54;4.55;;;3.58;;
20462;SDS011;10390;53.566;9.980;2022-08-03T04:00:21;4.10;;;3.30;;
20462;SDS011;10390;53.566;9.980;2022-08-03T04:02:47;4.38;;;3.97;;
20462;SDS011;10390;53.566;9.980;2022-08-03T04:05:13;4.40;;;3.30;;
20462;SDS011;10390;53.566;9.980;2022-08-03T04:08:08;4.40;;;3.85;;
20462;SDS011;10390;53.566;9.980;2022-08-03T04:11:08;4.47;;;3.63;;
20462;SDS011;10390;53.566;9.980;2022-08-03T04:16:20;4.18;;;3.35;;
20462;SDS011;10390;53.566;9.980;2022-08-03T04:18:54;4.10;;;3.40;;
20462;SDS011;10390;53.566;9.980;2022-08-03T04:21:26;4.45;;;3.50;;
20462;SDS011;10390;53.566;9.980;2022-08-03T04:23:55;4.22;;;3.20;;
20462;SDS011;10390;53.566;9.980;2022-08-03T04:26:26;3.92;;;3.05;;
20462;SDS011;10390;53.566;9.980;2022-08-03T04:28:56;4.20;;;3.50;;
20462;SDS011;10390;53.566;9.980;2022-08-03T04:31:24;4.60;;;3.80;;
20462;SDS011;10390;53.566;9.980;2022-08-03T04:33:52;4.20;;;3.47;;
20462;SDS011;10390;53.566;9.980;2022-08-03T04:36:20;4.25;;;3.55;;
20462;SDS011;10390;53.566;9.980;2022-08-03T04:41:33;4.30;;;3.28;;
20462;SDS011;10390;53.566;9.980;2022-08-03T04:44:00;4.43;;;3.38;;
20462;SDS011;10390;53.566;9.980;2022-08-03T04:46:30;4.40;;;3.28;;
20462;SDS011;10390;53.566;9.980;2022-08-03T04:49:00;4.43;;;3.33;;
20462;SDS011;10390;53.566;9.980;2022-08-03T04:51:26;4.28;;;3.58;;
20462;SDS011;10390;53.566;9.980;2022-08-03T04:53:53;4.45;;;3.72;;
20462;SDS011;10390;53.566;9.980;2022-08-03T04:56:18;4.28;;;3.50;;
20462;SDS011;10390;53.566;9.980;2022-08-03T04:58:44;5.20;;;3.78;;
20462;SDS011;10390;53.566;9.980;2022-08-03T05:01:10;4.43;;;3.70;;
20462;SDS011;10390;53.566;9.980;2022-08-03T05:03:36;4.50;;;3.80;;
20462;SDS011;10390;53.566;9.980;2022-08-03T05:06:02;4.35;;;3.70;;
20462;SDS011;10390;53.566;9.980;2022-08-03T05:08:28;6.15;;;4.20;;
20462;SDS011;10390;53.566;9.980;2022-08-03T05:10:54;4.78;;;4.10;;
20462;SDS011;10390;53.566;9.980;2022-08-03T05:13:21;4.88;;;4.15;;
20462;SDS011;10390;53.566;9.980;2022-08-03T05:15:46;4.00;;;3.53;;
20462;SDS011;10390;53.566;9.980;2022-08-03T05:18:13;5.15;;;4.03;;
20462;SDS011;10390;53.566;9.980;2022-08-03T05:20:39;4.95;;;3.95;;
20462;SDS011;10390;53.566;9.980;2022-08-03T05:23:04;4.95;;;4.00;;
20462;SDS011;10390;53.566;9.980;2022-08-03T05:25:30;4.93;;;4.15;;
20462;SDS011;10390;53.566;9.980;2022-08-03T05:27:56;4.57;;;4.07;;
20462;SDS011;10390;53.566;9.980;2022-08-03T05:30:21;5.13;;;4.63;;
20462;SDS011;10390;53.566;9.980;2022-08-03T05:32:47;4.50;;;3.80;;
20462;SDS011;10390;53.566;9.980;2022-08-03T05:35:13;4.70;;;3.78;;
20462;SDS011;10390;53.566;9.980;2022-08-03T05:37:39;4.40;;;4.00;;
20462;SDS011;10390;53.566;9.980;2022-08-03T05:40:05;4.75;;;4.20;;
20462;SDS011;10390;53.566;9.980;2022-08-03T05:42:31;5.20;;;4.63;;
20462;SDS011;10390;53.566;9.980;2022-08-03T05:44:58;4.53;;;3.65;;
20462;SDS011;10390;53.566;9.980;2022-08-03T05:47:38;4.82;;;4.30;;
20462;SDS011;10390;53.566;9.980;2022-08-03T05:50:05;4.70;;;4.20;;
20462;SDS011;10390;53.566;9.980;2022-08-03T05:52:32;5.20;;;4.70;;
20462;SDS011;10390;53.566;9.980;2022-08-03T05:54:58;4.82;;;4.20;;
20462;SDS011;10390;53.566;9.980;2022-08-03T05:57:24;4.40;;;4.00;;
20462;SDS011;10390;53.566;9.980;2022-08-03T05:59:50;4.93;;;4.13;;
20462;SDS011;10390;53.566;9.980;2022-08-03T06:02:15;4.45;;;3.95;;
20462;SDS011;10390;53.566;9.980;2022-08-03T06:04:41;5.35;;;4.20;;
20462;SDS011;10390;53.566;9.980;2022-08-03T06:07:07;5.32;;;4.22;;
20462;SDS011;10390;53.566;9.980;2022-08-03T06:09:33;4.93;;;4.43;;
20462;SDS011;10390;53.566;9.980;2022-08-03T06:11:58;5.10;;;4.35;;
20462;SDS011;10390;53.566;9.980;2022-08-03T06:14:24;4.80;;;4.30;;
20462;SDS011;10390;53.566;9.980;2022-08-03T06:16:50;4.70;;;4.20;;
20462;SDS011;10390;53.566;9.980;2022-08-03T06:19:15;4.57;;;4.00;;
20462;SDS011;10390;53.566;9.980;2022-08-03T06:21:41;4.38;;;3.78;;
20462;SDS011;10390;53.566;9.980;2022-08-03T06:24:07;4.75;;;4.25;;
20462;SDS011;10390;53.566;9.980;2022-08-03T06:26:33;4.70;;;4.20;;
20462;SDS011;10390;53.566;9.980;2022-08-03T06:28:59;4.50;;;3.95;;
20462;SDS011;10390;53.566;9.980;2022-08-03T06:31:25;4.93;;;4.43;;
20462;SDS011;10390;53.566;9.980;2022-08-03T06:33:53;4.80;;;3.88;;
20462;SDS011;10390;53.566;9.980;2022-08-03T06:36:19;4.70;;;4.20;;
20462;SDS011;10390;53.566;9.980;2022-08-03T06:38:45;5.20;;;4.50;;
20462;SDS011;10390;53.566;9.980;2022-08-03T06:41:11;4.70;;;4.20;;
20462;SDS011;10390;53.566;9.980;2022-08-03T06:43:37;5.03;;;4.53;;
20462;SDS011;10390;53.566;9.980;2022-08-03T06:46:03;4.97;;;4.47;;
20462;SDS011;10390;53.566;9.980;2022-08-03T06:48:29;5.43;;;4.93;;
20462;SDS011;10390;53.566;9.980;2022-08-03T06:50:55;5.20;;;4.70;;
20462;SDS011;10390;53.566;9.980;2022-08-03T06:53:21;5.45;;;4.95;;
20462;SDS011;10390;53.566;9.980;2022-08-03T06:55:47;5.30;;;4.80;;
20462;SDS011;10390;53.566;9.980;2022-08-03T06:58:13;5.38;;;4.88;;
20462;SDS011;10390;53.566;9.980;2022-08-03T07:00:38;4.65;;;4.15;;
20462;SDS011;10390;53.566;9.980;2022-08-03T07:03:04;5.07;;;4.57;;
20462;SDS011;10390;53.566;9.980;2022-08-03T07:05:30;6.00;;;4.82;;
20462;SDS011;10390;53.566;9.980;2022-08-03T07:07:58;4.85;;;4.03;;
20462;SDS011;10390;53.566;9.980;2022-08-03T07:10:27;5.63;;;5.03;;
20462;SDS011;10390;53.566;9.980;2022-08-03T07:12:53;5.05;;;4.47;;
20462;SDS011;10390;53.566;9.980;2022-08-03T07:15:19;5.13;;;4.63;;
20462;SDS011;10390;53.566;9.980;2022-08-03T07:17:44;4.60;;;4.10;;
20462;SDS011;10390;53.566;9.980;2022-08-03T07:20:10;5.10;;;4.60;;
20462;SDS011;10390;53.566;9.980;2022-08-03T07:22:37;5.00;;;4.50;;
20462;SDS011;10390;53.566;9.980;2022-08-03T07:25:03;5.45;;;4.95;;
20462;SDS011;10390;53.566;9.980;2022-08-03T07:27:29;5.18;;;4.40;;
20462;SDS011;10390;53.566;9.980;2022-08-03T07:29:56;5.20;;;4.70;;
20462;SDS011;10390;53.566;9.980;2022-08-03T07:32:23;5.25;;;4.75;;
20462;SDS011;10390;53.566;9.980;2022-08-03T07:34:50;6.13;;;4.53;;
20462;SDS011;10390;53.566;9.980;2022-08-03T07:37:16;4.80;;;4.25;;
20462;SDS011;10390;53.566;9.980;2022-08-03T07:39:41;5.38;;;4.63;;
20462;SDS011;10390;53.566;9.980;2022-08-03T07:42:07;4.93;;;4.03;;
20462;SDS011;10390;53.566;9.980;2022-08-03T07:44:33;5.63;;;4.35;;
20462;SDS011;10390;53.566;9.980;2022-08-03T07:46:59;6.45;;;4.10;;
20462;SDS011;10390;53.566;9.980;2022-08-03T07:49:25;4.60;;;4.10;;
20462;SDS011;10390;53.566;9.980;2022-08-03T07:51:50;4.88;;;4.38;;
20462;SDS011;10390;53.566;9.980;2022-08-03T07:54:34;5.00;;;4.45;;
20462;SDS011;10390;53.566;9.980;2022-08-03T07:57:00;6.93;;;5.15;;
20462;SDS011;10390;53.566;9.980;2022-08-03T07:59:26;5.68;;;4.32;;
20462;SDS011;10390;53.566;9.980;2022-08-03T08:01:52;4.70;;;3.92;;
20462;SDS011;10390;53.566;9.980;2022-08-03T08:04:18;4.95;;;4.45;;
20462;SDS011;10390;53.566;9.980;2022-08-03T08:06:43;5.25;;;4.75;;
20462;SDS011;10390;53.566;9.980;2022-08-03T08:09:09;5.18;;;4.30;;
20462;SDS011;10390;53.566;9.980;2022-08-03T08:11:35;5.03;;;4.00;;
20462;SDS011;10390;53.566;9.980;2022-08-03T08:14:02;4.60;;;4.10;;
20462;SDS011;10390;53.566;9.980;2022-08-03T08:16:29;4.68;;;3.83;;
20462;SDS011;10390;53.566;9.980;2022-08-03T08:18:55;4.60;;;4.10;;
20462;SDS011;10390;53.566;9.980;2022-08-03T08:21:21;4.68;;;3.97;;
20462;SDS011;10390;53.566;9.980;2022-08-03T08:23:47;5.05;;;4.22;;
20462;SDS011;10390;53.566;9.980;2022-08-03T08:26:12;4.53;;;4.00;;
20462;SDS011;10390;53.566;9.980;2022-08-03T08:28:38;4.47;;;4.05;;
20462;SDS011;10390;53.566;9.980;2022-08-03T08:31:04;3.92;;;3.50;;
20462;SDS011;10390;53.566;9.980;2022-08-03T08:33:30;4.75;;;3.63;;
20462;SDS011;10390;53.566;9.980;2022-08-03T08:35:58;4.40;;;3.75;;
20462;SDS011;10390;53.566;9.980;2022-08-03T08:38:24;4.43;;;4.03;;
20462;SDS011;10390;53.566;9.980;2022-08-03T08:40:50;4.38;;;3.90;;
20462;SDS011;10390;53.566;9.980;2022-08-03T08:43:19;4.85;;;3.90;;
20462;SDS011;10390;53.566;9.980;2022-08-03T08:45:47;4.95;;;3.70;;
20462;SDS011;10390;53.566;9.980;2022-08-03T08:48:16;4.47;;;3.83;;
20462;SDS011;10390;53.566;9.980;2022-08-03T08:50:47;4.20;;;3.80;;
20462;SDS011;10390;53.566;9.980;2022-08-03T08:53:17;4.68;;;4.18;;
20462;SDS011;10390;53.566;9.980;2022-08-03T08:55:45;4.80;;;4.30;;
20462;SDS011;10390;53.566;9.980;2022-08-03T08:58:12;4.95;;;4.20;;
20462;SDS011;10390;53.566;9.980;2022-08-03T09:00:43;4.78;;;4.00;;
20462;SDS011;10390;53.566;9.980;2022-08-03T09:03:10;5.40;;;4.10;;
20462;SDS011;10390;53.566;9.980;2022-08-03T09:05:38;6.47;;;4.22;;
20462;SDS011;10390;53.566;9.980;2022-08-03T09:08:07;5.00;;;4.18;;
20462;SDS011;10390;53.566;9.980;2022-08-03T09:10:33;5.55;;;4.50;;
20462;SDS011;10390;53.566;9.980;2022-08-03T09:12:59;5.03;;;4.10;;
20462;SDS011;10390;53.566;9.980;2022-08-03T09:15:26;5.15;;;4.40;;
20462;SDS011;10390;53.566;9.980;2022-08-03T09:18:01;5.03;;;4.28;;
20462;SDS011;10390;53.566;9.980;2022-08-03T09:20:29;4.80;;;4.10;;
20462;SDS011;10390;53.566;9.980;2022-08-03T09:25:40;4.70;;;4.18;;
20462;SDS011;10390;53.566;9.980;2022-08-03T09:28:07;4.88;;;4.38;;
20462;SDS011;10390;53.566;9.980;2022-08-03T09:30:42;4.82;;;4.10;;
20462;SDS011;10390;53.566;9.980;2022-08-03T09:33:22;4.75;;;4.22;;
20462;SDS011;10390;53.566;9.980;2022-08-03T09:35:48;5.43;;;4.80;;
20462;SDS011;10390;53.566;9.980;2022-08-03T09:38:20;5.18;;;4.60;;
20462;SDS011;10390;53.566;9.980;2022-08-03T09:40:50;5.53;;;4.50;;
20462;SDS011;10390;53.566;9.980;2022-08-03T09:43:17;6.35;;;4.45;;
20462;SDS011;10390;53.566;9.980;2022-08-03T09:45:43;4.70;;;4.03;;
20462;SDS011;10390;53.566;9.980;2022-08-03T09:50:52;8.32;;;4.25;;
20462;SDS011;10390;53.566;9.980;2022-08-03T09:53:21;6.10;;;4.28;;
20462;SDS011;10390;53.566;9.980;2022-08-03T09:55:54;6.75;;;4.60;;
20462;SDS011;10390;53.566;9.980;2022-08-03T09:58:27;5.13;;;4.40;;
20462;SDS011;10390;53.566;9.980;2022-08-03T10:03:26;6.85;;;3.90;;
20462;SDS011;10390;53.566;9.980;2022-08-03T10:05:57;4.90;;;4.40;;
20462;SDS011;10390;53.566;9.980;2022-08-03T10:08:38;4.88;;;4.38;;
20462;SDS011;10390;53.566;9.980;2022-08-03T10:11:04;4.57;;;3.97;;
20462;SDS011;10390;53.566;9.980;2022-08-03T10:13:30;4.82;;;3.92;;
20462;SDS011;10390;53.566;9.980;2022-08-03T10:15:56;4.30;;;3.85;;
20462;SDS011;10390;53.566;9.980;2022-08-03T10:18:22;5.50;;;4.07;;
20462;SDS011;10390;53.566;9.980;2022-08-03T10:20:49;5.22;;;3.92;;
20462;SDS011;10390;53.566;9.980;2022-08-03T10:23:18;5.05;;;4.13;;
20462;SDS011;10390;53.566;9.980;2022-08-03T10:25:46;5.15;;;4.20;;
20462;SDS011;10390;53.566;9.980;2022-08-03T10:28:14;5.18;;;4.53;;
20462;SDS011;10390;53.566;9.980;2022-08-03T10:30:44;4.90;;;4.35;;
20462;SDS011;10390;53.566;9.980;2022-08-03T10:33:23;5.07;;;4.13;;
20462;SDS011;10390;53.566;9.980;2022-08-03T10:35:56;4.82;;;4.05;;
20462;SDS011;10390;53.566;9.980;2022-08-03T10:38:24;4.38;;;3.78;;
20462;SDS011;10390;53.566;9.980;2022-08-03T10:40:57;6.10;;;4.30;;
20462;SDS011;10390;53.566;9.980;2022-08-03T10:43:29;4.47;;;3.70;;
20462;SDS011;10390;53.566;9.980;2022-08-03T10:46:28;5.93;;;4.03;;
20462;SDS011;10390;53.566;9.980;2022-08-03T10:48:54;4.93;;;3.95;;
20462;SDS011;10390;53.566;9.980;2022-08-03T10:51:21;5.10;;;3.97;;
20462;SDS011;10390;53.566;9.980;2022-08-03T10:53:48;5.07;;;3.70;;
20462;SDS011;10390;53.566;9.980;2022-08-03T11:02:11;4.60;;;3.65;;
20462;SDS011;10390;53.566;9.980;2022-08-03T11:04:38;4.68;;;4.15;;
20462;SDS011;10390;53.566;9.980;2022-08-03T11:09:43;4.50;;;3.83;;
20462;SDS011;10390;53.566;9.980;2022-08-03T11:14:56;4.55;;;3.95;;
20462;SDS011;10390;53.566;9.980;2022-08-03T11:17:24;5.47;;;3.72;;
20462;SDS011;10390;53.566;9.980;2022-08-03T11:19:50;4.93;;;3.90;;
20462;SDS011;10390;53.566;9.980;2022-08-03T11:22:18;5.68;;;3.90;;
20462;SDS011;10390;53.566;9.980;2022-08-03T11:35:08;4.75;;;4.07;;
20462;SDS011;10390;53.566;9.980;2022-08-03T11:48:22;6.10;;;4.82;;
20462;SDS011;10390;53.566;9.980;2022-08-03T11:50:53;5.30;;;3.80;;
20462;SDS011;10390;53.566;9.980;2022-08-03T11:53:19;5.00;;;3.60;;
20462;SDS011;10390;53.566;9.980;2022-08-03T11:55:46;4.88;;;3.78;;
20462;SDS011;10390;53.566;9.980;2022-08-03T11:58:17;5.00;;;4.10;;
20462;SDS011;10390;53.566;9.980;2022-08-03T12:00:47;5.10;;;4.20;;
20462;SDS011;10390;53.566;9.980;2022-08-03T12:03:17;5.10;;;4.30;;
20462;SDS011;10390;53.566;9.980;2022-08-03T12:05:46;5.20;;;3.85;;
20462;SDS011;10390;53.566;9.980;2022-08-03T12:08:39;4.80;;;3.97;;
20462;SDS011;10390;53.566;9.980;2022-08-03T12:11:05;4.78;;;3.75;;
20462;SDS011;10390;53.566;9.980;2022-08-03T12:13:46;5.57;;;4.35;;
20462;SDS011;10390;53.566;9.980;2022-08-03T12:16:23;5.25;;;4.00;;
20462;SDS011;10390;53.566;9.980;2022-08-03T12:18:57;5.25;;;3.75;;
20462;SDS011;10390;53.566;9.980;2022-08-03T12:21:26;4.93;;;4.22;;
20462;SDS011;10390;53.566;9.980;2022-08-03T12:23:57;5.63;;;4.05;;
20462;SDS011;10390;53.566;9.980;2022-08-03T12:26:25;5.15;;;4.15;;
20462;SDS011;10390;53.566;9.980;2022-08-03T12:28:53;4.85;;;3.80;;
20462;SDS011;10390;53.566;9.980;2022-08-03T12:31:18;4.82;;;4.32;;
20462;SDS011;10390;53.566;9.980;2022-08-03T12:36:53;5.40;;;3.95;;
20462;SDS011;10390;53.566;9.980;2022-08-03T12:39:25;4.90;;;4.20;;
20462;SDS011;10390;53.566;9.980;2022-08-03T12:41:54;4.80;;;4.30;;
20462;SDS011;10390;53.566;9.980;2022-08-03T12:44:28;4.80;;;4.07;;
20462;SDS011;10390;53.566;9.980;2022-08-03T12:46:59;5.32;;;4.10;;
20462;SDS011;10390;53.566;9.980;2022-08-03T12:49:26;4.78;;;4.07;;
20462;SDS011;10390;53.566;9.980;2022-08-03T12:54:22;5.47;;;4.13;;
20462;SDS011;10390;53.566;9.980;2022-08-03T12:57:04;4.88;;;3.90;;
20462;SDS011;10390;53.566;9.980;2022-08-03T13:02:16;5.72;;;4.38;;
20462;SDS011;10390;53.566;9.980;2022-08-03T13:04:45;5.43;;;4.38;;
20462;SDS011;10390;53.566;9.980;2022-08-03T13:07:12;5.95;;;4.13;;
20462;SDS011;10390;53.566;9.980;2022-08-03T13:09:43;4.60;;;4.00;;
20462;SDS011;10390;53.566;9.980;2022-08-03T13:12:16;4.55;;;4.13;;
20462;SDS011;10390;53.566;9.980;2022-08-03T13:14:46;4.93;;;4.22;;
20462;SDS011;10390;53.566;9.980;2022-08-03T13:17:19;4.93;;;3.90;;
20462;SDS011;10390;53.566;9.980;2022-08-03T13:19:45;5.13;;;3.97;;
20462;SDS011;10390;53.566;9.980;2022-08-03T13:22:12;5.97;;;4.40;;
20462;SDS011;10390;53.566;9.980;2022-08-03T13:24:43;4.72;;;3.75;;
20462;SDS011;10390;53.566;9.980;2022-08-03T13:27:10;5.35;;;4.25;;
20462;SDS011;10390;53.566;9.980;2022-08-03T13:29:37;5.35;;;3.90;;
20462;SDS011;10390;53.566;9.980;2022-08-03T13:32:03;4.70;;;4.07;;
20462;SDS011;10390;53.566;9.980;2022-08-03T13:34:31;4.70;;;4.00;;
20462;SDS011;10390;53.566;9.980;2022-08-03T13:36:57;4.93;;;4.03;;
20462;SDS011;10390;53.566;9.980;2022-08-03T13:39:23;5.78;;;4.18;;
20462;SDS011;10390;53.566;9.980;2022-08-03T13:41:49;5.53;;;4.45;;
20462;SDS011;10390;53.566;9.980;2022-08-03T13:44:15;6.15;;;4.30;;
20462;SDS011;10390;53.566;9.980;2022-08-03T13:46:41;6.25;;;3.95;;
20462;SDS011;10390;53.566;9.980;2022-08-03T13:49:07;4.53;;;3.80;;
20462;SDS011;10390;53.566;9.980;2022-08-03T13:51:33;5.07;;;3.80;;
20462;SDS011;10390;53.566;9.980;2022-08-03T13:53:59;5.30;;;3.75;;
20462;SDS011;10390;53.566;9.980;2022-08-03T13:56:25;5.05;;;3.80;;
20462;SDS011;10390;53.566;9.980;2022-08-03T13:58:51;5.78;;;4.43;;
20462;SDS011;10390;53.566;9.980;2022-08-03T14:01:18;4.40;;;3.60;;
20462;SDS011;10390;53.566;9.980;2022-08-03T14:03:44;5.45;;;4.30;;
20462;SDS011;10390;53.566;9.980;2022-08-03T14:06:13;6.30;;;4.20;;
20462;SDS011;10390;53.566;9.980;2022-08-03T14:08:39;5.30;;;4.10;;
20462;SDS011;10390;53.566;9.980;2022-08-03T14:11:05;5.15;;;4.47;;
20462;SDS011;10390;53.566;9.980;2022-08-03T14:13:31;4.78;;;4.15;;
20462;SDS011;10390;53.566;9.980;2022-08-03T14:15:57;4.45;;;3.78;;
20462;SDS011;10390;53.566;9.980;2022-08-03T14:18:23;5.07;;;4.15;;
20462;SDS011;10390;53.566;9.980;2022-08-03T14:20:48;4.82;;;3.85;;
20462;SDS011;10390;53.566;9.980;2022-08-03T14:23:14;5.30;;;4.38;;
20462;SDS011;10390;53.566;9.980;2022-08-03T14:25:41;5.38;;;3.80;;
20462;SDS011;10390;53.566;9.980;2022-08-03T14:28:07;6.03;;;3.95;;
20462;SDS011;10390;53.566;9.980;2022-08-03T14:30:33;5.18;;;4.68;;
20462;SDS011;10390;53.566;9.980;2022-08-03T14:32:59;5.72;;;4.72;;
20462;SDS011;10390;53.566;9.980;2022-08-03T14:35:25;5.15;;;4.28;;
20462;SDS011;10390;53.566;9.980;2022-08-03T14:37:51;4.50;;;4.00;;
20462;SDS011;10390;53.566;9.980;2022-08-03T14:40:17;5.13;;;3.95;;
20462;SDS011;10390;53.566;9.980;2022-08-03T14:42:44;5.03;;;4.22;;
20462;SDS011;10390;53.566;9.980;2022-08-03T14:45:10;4.97;;;4.47;;
20462;SDS011;10390;53.566;9.980;2022-08-03T14:47:37;5.43;;;4.40;;
20462;SDS011;10390;53.566;9.980;2022-08-03T14:50:04;5.25;;;4.60;;
20462;SDS011;10390;53.566;9.980;2022-08-03T14:52:31;4.55;;;3.88;;
20462;SDS011;10390;53.566;9.980;2022-08-03T14:54:58;4.90;;;4.07;;
20462;SDS011;10390;53.566;9.980;2022-08-03T14:57:24;5.10;;;4.40;;
20462;SDS011;10390;53.566;9.980;2022-08-03T14:59:51;5.30;;;3.95;;
20462;SDS011;10390;53.566;9.980;2022-08-03T15:02:17;5.20;;;3.60;;
20462;SDS011;10390;53.566;9.980;2022-08-03T15:04:44;4.82;;;4.00;;
20462;SDS011;10390;53.566;9.980;2022-08-03T15:07:10;5.18;;;3.80;;
20462;SDS011;10390;53.566;9.980;2022-08-03T15:09:36;4.93;;;3.80;;
20462;SDS011;10390;53.566;9.980;2022-08-03T15:12:03;5.07;;;3.83;;
20462;SDS011;10390;53.566;9.980;2022-08-03T15:14:30;5.03;;;3.67;;
20462;SDS011;10390;53.566;9.980;2022-08-03T15:16:57;4.45;;;3.40;;
20462;SDS011;10390;53.566;9.980;2022-08-03T15:19:23;4.22;;;3.45;;
20462;SDS011;10390;53.566;9.980;2022-08-03T15:21:48;4.95;;;3.95;;
20462;SDS011;10390;53.566;9.980;2022-08-03T15:24:14;4.50;;;3.55;;
20462;SDS011;10390;53.566;9.980;2022-08-03T15:26:40;4.30;;;3.60;;
20462;SDS011;10390;53.566;9.980;2022-08-03T15:29:06;6.10;;;3.85;;
20462;SDS011;10390;53.566;9.980;2022-08-03T15:31:32;3.97;;;3.35;;
20462;SDS011;10390;53.566;9.980;2022-08-03T15:33:58;4.40;;;3.67;;
20462;SDS011;10390;53.566;9.980;2022-08-03T15:36:24;5.10;;;4.30;;
20462;SDS011;10390;53.566;9.980;2022-08-03T15:38:50;4.07;;;3.60;;
20462;SDS011;10390;53.566;9.980;2022-08-03T15:41:16;4.82;;;3.90;;
20462;SDS011;10390;53.566;9.980;2022-08-03T15:43:42;4.45;;;3.90;;
20462;SDS011;10390;53.566;9.980;2022-08-03T15:46:10;5.00;;;3.70;;
20462;SDS011;10390;53.566;9.980;2022-08-03T15:48:37;5.93;;;3.80;;
20462;SDS011;10390;53.566;9.980;2022-08-03T15:51:04;4.85;;;3.80;;
20462;SDS011;10390;53.566;9.980;2022-08-03T15:53:30;4.47;;;4.03;;
20462;SDS011;10390;53.566;9.980;2022-08-03T15:55:57;4.53;;;3.75;;
20462;SDS011;10390;53.566;9.980;2022-08-03T15:58:23;4.75;;;3.60;;
20462;SDS011;10390;53.566;9.980;2022-08-03T16:00:54;5.05;;;3.40;;
20462;SDS011;10390;53.566;9.980;2022-08-03T16:03:24;4.93;;;3.45;;